sensor_id;sensor_type;location;lat;lon;timestamp;pressure;altitude;pressure_sealevel;temperature;humidity
46942;BME280;32676;52.630;4.896;2022-11-25T00:01:25;100482.16;;;8.83;84.51
46942;BME280;32676;52.630;4.896;2022-11-25T00:03:53;100458.00;;;8.73;84.74
46942;BME280;32676;52.630;4.896;2022-11-25T00:06:21;100458.00;;;8.73;85.16
46942;BME280;32676;52.630;4.896;2022-11-25T00:08:49;100468.28;;;8.79;85.60
46942;BME280;32676;52.630;4.896;2022-11-25T00:11:17;100468.28;;;8.79;86.07
46942;BME280;32676;52.630;4.896;2022-11-25T00:13:46;100471.72;;;8.81;86.14
46942;BME280;32676;52.630;4.896;2022-11-25T00:16:15;100486.53;;;8.82;86.52
46942;BME280;32676;52.630;4.896;2022-11-25T00:18:43;100465.03;;;8.71;86.76
46942;BME280;32676;52.630;4.896;2022-11-25T00:21:11;100478.75;;;8.79;86.79
46942;BME280;32676;52.630;4.896;2022-11-25T00:23:38;100479.59;;;8.80;87.04
46942;BME280;32676;52.630;4.896;2022-11-25T00:26:06;100480.38;;;8.83;87.14
46942;BME280;32676;52.630;4.896;2022-11-25T00:28:33;100488.22;;;8.83;87.42
46942;BME280;32676;52.630;4.896;2022-11-25T00:31:05;100484.00;;;8.79;87.50
46942;BME280;32676;52.630;4.896;2022-11-25T00:33:32;100471.91;;;8.75;87.58
46942;BME280;32676;52.630;4.896;2022-11-25T00:36:00;100474.38;;;8.80;87.68
46942;BME280;32676;52.630;4.896;2022-11-25T00:38:27;100458.84;;;8.74;87.99
46942;BME280;32676;52.630;4.896;2022-11-25T00:40:53;100455.38;;;8.73;88.08
46942;BME280;32676;52.630;4.896;2022-11-25T00:43:41;100463.13;;;8.76;88.45
46942;BME280;32676;52.630;4.896;2022-11-25T00:46:25;100461.38;;;8.77;88.49
46942;BME280;32676;52.630;4.896;2022-11-25T00:48:51;100445.88;;;8.69;88.47
46942;BME280;32676;52.630;4.896;2022-11-25T00:51:18;100458.09;;;8.70;88.99
46942;BME280;32676;52.630;4.896;2022-11-25T00:53:45;100461.50;;;8.72;88.98
46942;BME280;32676;52.630;4.896;2022-11-25T00:56:11;100464.84;;;8.77;89.07
46942;BME280;32676;52.630;4.896;2022-11-25T00:58:41;100467.56;;;8.74;89.33
46942;BME280;32676;52.630;4.896;2022-11-25T01:01:09;100475.34;;;8.77;89.39
46942;BME280;32676;52.630;4.896;2022-11-25T01:03:37;100474.56;;;8.74;89.63
46942;BME280;32676;52.630;4.896;2022-11-25T01:06:05;100479.66;;;8.78;89.65
46942;BME280;32676;52.630;4.896;2022-11-25T01:08:33;100494.41;;;8.82;89.75
46942;BME280;32676;52.630;4.896;2022-11-25T01:11:01;100504.75;;;8.86;89.77
46942;BME280;32676;52.630;4.896;2022-11-25T01:13:28;100509.16;;;8.85;89.79
46942;BME280;32676;52.630;4.896;2022-11-25T01:15:54;100516.97;;;8.87;89.78
46942;BME280;32676;52.630;4.896;2022-11-25T01:18:22;100510.13;;;8.82;89.79
46942;BME280;32676;52.630;4.896;2022-11-25T01:20:50;100506.56;;;8.83;89.91
46942;BME280;32676;52.630;4.896;2022-11-25T01:23:16;100507.41;;;8.84;89.79
46942;BME280;32676;52.630;4.896;2022-11-25T01:25:43;100510.88;;;8.86;89.84
46942;BME280;32676;52.630;4.896;2022-11-25T01:28:09;100504.75;;;8.86;89.82
46942;BME280;32676;52.630;4.896;2022-11-25T01:30:38;100503.16;;;8.81;89.65
46942;BME280;32676;52.630;4.896;2022-11-25T01:33:04;100522.13;;;8.90;89.75
46942;BME280;32676;52.630;4.896;2022-11-25T01:35:31;100492.06;;;8.73;89.51
46942;BME280;32676;52.630;4.896;2022-11-25T01:37:59;100516.97;;;8.87;89.64
46942;BME280;32676;52.630;4.896;2022-11-25T01:40:25;100510.97;;;8.83;89.33
46942;BME280;32676;52.630;4.896;2022-11-25T01:42:52;100518.66;;;8.88;89.31
46942;BME280;32676;52.630;4.896;2022-11-25T01:45:33;100530.03;;;8.88;89.01
46942;BME280;32676;52.630;4.896;2022-11-25T01:48:05;100493.81;;;8.73;88.96
46942;BME280;32676;52.630;4.896;2022-11-25T01:50:36;100524.78;;;8.88;88.66
46942;BME280;32676;52.630;4.896;2022-11-25T01:53:06;100502.53;;;8.73;88.48
46942;BME280;32676;52.630;4.896;2022-11-25T01:55:39;100516.97;;;8.87;88.14
46942;BME280;32676;52.630;4.896;2022-11-25T01:58:10;100520.44;;;8.87;87.88
46942;BME280;32676;52.630;4.896;2022-11-25T02:00:38;100505.72;;;8.83;87.73
46942;BME280;32676;52.630;4.896;2022-11-25T02:03:05;100507.53;;;8.81;87.65
46942;BME280;32676;52.630;4.896;2022-11-25T02:05:37;100482.38;;;8.75;87.54
46942;BME280;32676;52.630;4.896;2022-11-25T02:08:07;100482.28;;;8.78;87.52
46942;BME280;32676;52.630;4.896;2022-11-25T02:10:35;100477.16;;;8.75;87.36
46942;BME280;32676;52.630;4.896;2022-11-25T02:13:01;100480.56;;;8.77;87.28
46942;BME280;32676;52.630;4.896;2022-11-25T02:15:30;100479.72;;;8.77;87.19
46942;BME280;32676;52.630;4.896;2022-11-25T02:17:58;100478.84;;;8.76;87.21
46942;BME280;32676;52.630;4.896;2022-11-25T02:20:25;100479.72;;;8.77;87.30
46942;BME280;32676;52.630;4.896;2022-11-25T02:22:58;100463.25;;;8.73;87.22
46942;BME280;32676;52.630;4.896;2022-11-25T02:25:28;100461.50;;;8.72;87.36
46942;BME280;32676;52.630;4.896;2022-11-25T02:27:57;100460.66;;;8.72;87.52
46942;BME280;32676;52.630;4.896;2022-11-25T02:30:25;100439.13;;;8.62;87.71
46942;BME280;32676;52.630;4.896;2022-11-25T02:32:52;100447.59;;;8.70;87.91
46942;BME280;32676;52.630;4.896;2022-11-25T02:35:27;100456.31;;;8.71;88.01
46942;BME280;32676;52.630;4.896;2022-11-25T02:37:58;100463.25;;;8.73;88.29
46942;BME280;32676;52.630;4.896;2022-11-25T02:40:28;100470.19;;;8.74;88.38
46942;BME280;32676;52.630;4.896;2022-11-25T02:42:58;100458.09;;;8.70;88.67
46942;BME280;32676;52.630;4.896;2022-11-25T02:45:30;100439.13;;;8.62;88.90
46942;BME280;32676;52.630;4.896;2022-11-25T02:47:58;100443.50;;;8.61;89.06
46942;BME280;32676;52.630;4.896;2022-11-25T02:50:24;100465.03;;;8.71;89.11
46942;BME280;32676;52.630;4.896;2022-11-25T02:52:51;100450.28;;;8.69;89.33
46942;BME280;32676;52.630;4.896;2022-11-25T02:55:17;100446.00;;;8.66;89.53
46942;BME280;32676;52.630;4.896;2022-11-25T02:57:45;100455.47;;;8.70;89.73
46942;BME280;32676;52.630;4.896;2022-11-25T03:00:13;100454.53;;;8.71;89.84
46942;BME280;32676;52.630;4.896;2022-11-25T03:02:39;100447.78;;;8.64;89.95
46942;BME280;32676;52.630;4.896;2022-11-25T03:05:06;100465.03;;;8.71;90.22
46942;BME280;32676;52.630;4.896;2022-11-25T03:07:33;100477.16;;;8.75;90.17
46942;BME280;32676;52.630;4.896;2022-11-25T03:09:59;100478.84;;;8.76;90.23
46942;BME280;32676;52.630;4.896;2022-11-25T03:12:26;100484.88;;;8.78;90.27
46942;BME280;32676;52.630;4.896;2022-11-25T03:14:55;100485.81;;;8.77;90.45
46942;BME280;32676;52.630;4.896;2022-11-25T03:17:21;100491.06;;;8.77;90.52
46942;BME280;32676;52.630;4.896;2022-11-25T03:19:48;100489.31;;;8.76;90.40
46942;BME280;32676;52.630;4.896;2022-11-25T03:22:15;100467.81;;;8.67;90.58
46942;BME280;32676;52.630;4.896;2022-11-25T03:24:41;100503.22;;;8.78;90.56
46942;BME280;32676;52.630;4.896;2022-11-25T03:27:08;100503.22;;;8.78;90.55
46942;BME280;32676;52.630;4.896;2022-11-25T03:29:35;100525.72;;;8.86;90.59
46942;BME280;32676;52.630;4.896;2022-11-25T03:32:03;100525.91;;;8.79;90.69
46942;BME280;32676;52.630;4.896;2022-11-25T03:34:30;100548.38;;;8.88;90.73
46942;BME280;32676;52.630;4.896;2022-11-25T03:36:56;100547.44;;;8.89;90.64
46942;BME280;32676;52.630;4.896;2022-11-25T03:39:23;100549.22;;;8.89;90.48
46942;BME280;32676;52.630;4.896;2022-11-25T03:41:49;100566.47;;;8.96;90.40
46942;BME280;32676;52.630;4.896;2022-11-25T03:44:16;100563.94;;;8.93;90.55
46942;BME280;32676;52.630;4.896;2022-11-25T03:46:42;100574.34;;;8.96;90.33
46942;BME280;32676;52.630;4.896;2022-11-25T03:49:10;100569.09;;;8.96;90.33
46942;BME280;32676;52.630;4.896;2022-11-25T03:51:36;100569.09;;;8.96;90.16
46942;BME280;32676;52.630;4.896;2022-11-25T03:54:03;100574.34;;;8.96;90.05
46942;BME280;32676;52.630;4.896;2022-11-25T03:56:29;100577.78;;;8.98;90.09
46942;BME280;32676;52.630;4.896;2022-11-25T03:58:56;100576.16;;;8.94;89.81
46942;BME280;32676;52.630;4.896;2022-11-25T04:01:22;100591.69;;;9.00;89.79
46942;BME280;32676;52.630;4.896;2022-11-25T04:03:49;100586.44;;;9.00;89.79
46942;BME280;32676;52.630;4.896;2022-11-25T04:06:17;100588.34;;;8.95;89.82
46942;BME280;32676;52.630;4.896;2022-11-25T04:08:45;100593.50;;;8.98;89.67
46942;BME280;32676;52.630;4.896;2022-11-25T04:11:12;100567.38;;;8.95;89.65
46942;BME280;32676;52.630;4.896;2022-11-25T04:13:39;100548.34;;;8.90;89.52
46942;BME280;32676;52.630;4.896;2022-11-25T04:16:04;100544.97;;;8.84;89.56
46942;BME280;32676;52.630;4.896;2022-11-25T04:18:31;100544.03;;;8.87;89.60
46942;BME280;32676;52.630;4.896;2022-11-25T04:20:57;100531.88;;;8.84;89.64
46942;BME280;32676;52.630;4.896;2022-11-25T04:23:25;100520.59;;;8.82;89.64
46942;BME280;32676;52.630;4.896;2022-11-25T04:25:51;100527.53;;;8.83;89.70
46942;BME280;32676;52.630;4.896;2022-11-25T04:28:18;100522.41;;;8.80;89.67
46942;BME280;32676;52.630;4.896;2022-11-25T04:30:45;100515.34;;;8.82;89.61
46942;BME280;32676;52.630;4.896;2022-11-25T04:33:11;100512.81;;;8.79;89.59
46942;BME280;32676;52.630;4.896;2022-11-25T04:35:38;100487.91;;;8.66;89.53
46942;BME280;32676;52.630;4.896;2022-11-25T04:38:04;100507.63;;;8.78;89.47
46942;BME280;32676;52.630;4.896;2022-11-25T04:40:32;100507.63;;;8.78;89.56
46942;BME280;32676;52.630;4.896;2022-11-25T04:42:58;100487.72;;;8.72;89.40
46942;BME280;32676;52.630;4.896;2022-11-25T04:45:25;100486.81;;;8.73;89.47
46942;BME280;32676;52.630;4.896;2022-11-25T04:47:51;100474.75;;;8.68;89.49
46942;BME280;32676;52.630;4.896;2022-11-25T04:50:20;100467.75;;;8.68;89.49
46942;BME280;32676;52.630;4.896;2022-11-25T04:52:47;100445.31;;;8.59;89.56
46942;BME280;32676;52.630;4.896;2022-11-25T04:55:14;100441.81;;;8.60;89.55
46942;BME280;32676;52.630;4.896;2022-11-25T04:57:41;100442.75;;;8.58;89.53
46942;BME280;32676;52.630;4.896;2022-11-25T05:00:09;100460.00;;;8.65;89.73
46942;BME280;32676;52.630;4.896;2022-11-25T05:02:35;100462.59;;;8.65;89.59
46942;BME280;32676;52.630;4.896;2022-11-25T05:05:04;100480.75;;;8.71;89.76
46942;BME280;32676;52.630;4.896;2022-11-25T05:07:30;100491.22;;;8.71;89.72
46942;BME280;32676;52.630;4.896;2022-11-25T05:09:57;100499.91;;;8.73;89.72
46942;BME280;32676;52.630;4.896;2022-11-25T05:12:25;100506.78;;;8.77;89.58
46942;BME280;32676;52.630;4.896;2022-11-25T05:14:54;100501.63;;;8.74;89.72
46942;BME280;32676;52.630;4.896;2022-11-25T05:17:23;100489.44;;;8.73;89.77
46942;BME280;32676;52.630;4.896;2022-11-25T05:19:50;100487.72;;;8.72;89.53
46942;BME280;32676;52.630;4.896;2022-11-25T05:22:19;100469.66;;;8.63;89.58
46942;BME280;32676;52.630;4.896;2022-11-25T05:24:46;100471.28;;;8.67;89.22
46942;BME280;32676;52.630;4.896;2022-11-25T05:27:13;100460.00;;;8.65;89.03
46942;BME280;32676;52.630;4.896;2022-11-25T05:29:41;100437.41;;;8.61;88.92
46942;BME280;32676;52.630;4.896;2022-11-25T05:32:09;100419.25;;;8.55;88.70
46942;BME280;32676;52.630;4.896;2022-11-25T05:34:36;100412.31;;;8.54;88.63
46942;BME280;32676;52.630;4.896;2022-11-25T05:37:03;100388.91;;;8.48;88.48
46942;BME280;32676;52.630;4.896;2022-11-25T05:39:30;100356.06;;;8.37;88.27
46942;BME280;32676;52.630;4.896;2022-11-25T05:41:57;100360.34;;;8.40;88.25
46942;BME280;32676;52.630;4.896;2022-11-25T05:44:24;100341.38;;;8.33;88.15
46942;BME280;32676;52.630;4.896;2022-11-25T05:46:50;100332.63;;;8.33;88.00
46942;BME280;32676;52.630;4.896;2022-11-25T05:49:19;100311.81;;;8.30;88.05
46942;BME280;32676;52.630;4.896;2022-11-25T05:51:46;100297.13;;;8.24;88.13
46942;BME280;32676;52.630;4.896;2022-11-25T05:54:13;100292.75;;;8.24;88.16
46942;BME280;32676;52.630;4.896;2022-11-25T05:56:40;100291.03;;;8.23;88.08
46942;BME280;32676;52.630;4.896;2022-11-25T05:59:06;100289.34;;;8.22;88.20
46942;BME280;32676;52.630;4.896;2022-11-25T06:01:33;100290.28;;;8.20;88.16
46942;BME280;32676;52.630;4.896;2022-11-25T06:04:00;100283.44;;;8.16;88.14
46942;BME280;32676;52.630;4.896;2022-11-25T06:06:27;100297.13;;;8.24;88.35
46942;BME280;32676;52.630;4.896;2022-11-25T06:08:54;100281.53;;;8.21;88.43
46942;BME280;32676;52.630;4.896;2022-11-25T06:11:20;100273.00;;;8.14;88.53
46942;BME280;32676;52.630;4.896;2022-11-25T06:13:47;100277.22;;;8.18;88.55
46942;BME280;32676;52.630;4.896;2022-11-25T06:16:16;100292.81;;;8.23;88.55
46942;BME280;32676;52.630;4.896;2022-11-25T06:18:44;100279.94;;;8.17;88.59
46942;BME280;32676;52.630;4.896;2022-11-25T06:21:12;100274.69;;;8.17;88.39
46942;BME280;32676;52.630;4.896;2022-11-25T06:23:40;100257.25;;;8.16;88.47
46942;BME280;32676;52.630;4.896;2022-11-25T06:26:11;100253.94;;;8.11;88.52
46942;BME280;32676;52.630;4.896;2022-11-25T06:28:38;100238.31;;;8.07;88.38
46942;BME280;32676;52.630;4.896;2022-11-25T06:31:06;100242.63;;;8.10;88.29
46942;BME280;32676;52.630;4.896;2022-11-25T06:33:33;100238.22;;;8.11;88.30
46942;BME280;32676;52.630;4.896;2022-11-25T06:36:01;100230.47;;;8.07;88.07
46942;BME280;32676;52.630;4.896;2022-11-25T06:38:28;100224.53;;;8.02;88.21
46942;BME280;32676;52.630;4.896;2022-11-25T06:40:59;100216.63;;;8.04;88.29
46942;BME280;32676;52.630;4.896;2022-11-25T06:43:26;100190.84;;;7.93;87.89
46942;BME280;32676;52.630;4.896;2022-11-25T06:45:52;100193.25;;;7.99;87.93
46942;BME280;32676;52.630;4.896;2022-11-25T06:48:19;100183.75;;;7.97;87.85
46942;BME280;32676;52.630;4.896;2022-11-25T06:50:54;100168.28;;;7.89;87.87
46942;BME280;32676;52.630;4.896;2022-11-25T06:53:20;100162.16;;;7.90;87.81
46942;BME280;32676;52.630;4.896;2022-11-25T06:55:47;100155.19;;;7.89;87.55
46942;BME280;32676;52.630;4.896;2022-11-25T06:58:15;100148.25;;;7.88;87.71
46942;BME280;32676;52.630;4.896;2022-11-25T07:00:42;100136.38;;;7.78;87.77
46942;BME280;32676;52.630;4.896;2022-11-25T07:03:08;100134.47;;;7.83;87.58
46942;BME280;32676;52.630;4.896;2022-11-25T07:05:35;100129.25;;;7.83;87.50
46942;BME280;32676;52.630;4.896;2022-11-25T07:08:01;100120.78;;;7.75;87.51
46942;BME280;32676;52.630;4.896;2022-11-25T07:10:28;100108.53;;;7.77;87.51
46942;BME280;32676;52.630;4.896;2022-11-25T07:12:54;100089.50;;;7.72;87.53
46942;BME280;32676;52.630;4.896;2022-11-25T07:15:22;100102.41;;;7.76;87.52
46942;BME280;32676;52.630;4.896;2022-11-25T07:17:49;100099.09;;;7.71;87.64
46942;BME280;32676;52.630;4.896;2022-11-25T07:20:15;100103.38;;;7.74;87.58
46942;BME280;32676;52.630;4.896;2022-11-25T07:22:42;100106.81;;;7.76;87.73
46942;BME280;32676;52.630;4.896;2022-11-25T07:25:08;100103.38;;;7.74;87.61
46942;BME280;32676;52.630;4.896;2022-11-25T07:27:35;100102.53;;;7.73;87.65
46942;BME280;32676;52.630;4.896;2022-11-25T07:30:01;100099.84;;;7.75;87.61
46942;BME280;32676;52.630;4.896;2022-11-25T07:32:31;100119.78;;;7.79;87.75
46942;BME280;32676;52.630;4.896;2022-11-25T07:34:58;100116.28;;;7.78;87.78
46942;BME280;32676;52.630;4.896;2022-11-25T07:37:24;100130.13;;;7.82;87.78
46942;BME280;32676;52.630;4.896;2022-11-25T07:39:51;100146.63;;;7.84;87.82
46942;BME280;32676;52.630;4.896;2022-11-25T07:42:18;100150.06;;;7.86;87.86
46942;BME280;32676;52.630;4.896;2022-11-25T07:44:44;100151.78;;;7.87;87.77
46942;BME280;32676;52.630;4.896;2022-11-25T07:47:11;100152.69;;;7.86;87.70
46942;BME280;32676;52.630;4.896;2022-11-25T07:49:38;100152.69;;;7.86;87.72
46942;BME280;32676;52.630;4.896;2022-11-25T07:52:05;100174.31;;;7.91;87.56
46942;BME280;32676;52.630;4.896;2022-11-25T07:54:32;100179.53;;;7.91;87.36
46942;BME280;32676;52.630;4.896;2022-11-25T07:56:59;100210.63;;;8.00;87.33
46942;BME280;32676;52.630;4.896;2022-11-25T07:59:25;100247.94;;;8.07;87.06
46942;BME280;32676;52.630;4.896;2022-11-25T08:01:53;100277.34;;;8.15;86.78
46942;BME280;32676;52.630;4.896;2022-11-25T08:04:20;100309.41;;;8.22;86.49
46942;BME280;32676;52.630;4.896;2022-11-25T08:06:50;100331.91;;;8.27;86.27
46942;BME280;32676;52.630;4.896;2022-11-25T08:09:19;100351.84;;;8.33;86.15
46942;BME280;32676;52.630;4.896;2022-11-25T08:11:47;100366.63;;;8.34;85.99
46942;BME280;32676;52.630;4.896;2022-11-25T08:14:14;100385.66;;;8.39;85.67
46942;BME280;32676;52.630;4.896;2022-11-25T08:16:40;100362.47;;;8.27;85.67
46942;BME280;32676;52.630;4.896;2022-11-25T08:19:09;100389.16;;;8.38;85.39
46942;BME280;32676;52.630;4.896;2022-11-25T08:21:37;100386.63;;;8.37;85.44
46942;BME280;32676;52.630;4.896;2022-11-25T08:24:05;100395.22;;;8.42;85.45
46942;BME280;32676;52.630;4.896;2022-11-25T08:26:34;100417.81;;;8.46;85.56
46942;BME280;32676;52.630;4.896;2022-11-25T08:29:02;100405.00;;;8.35;85.40
46942;BME280;32676;52.630;4.896;2022-11-25T08:31:31;100457.66;;;8.56;85.56
46942;BME280;32676;52.630;4.896;2022-11-25T08:33:58;100492.31;;;8.64;85.52
46942;BME280;32676;52.630;4.896;2022-11-25T08:36:27;100526.13;;;8.73;85.57
46942;BME280;32676;52.630;4.896;2022-11-25T08:38:55;100566.03;;;8.81;85.77
46942;BME280;32676;52.630;4.896;2022-11-25T08:41:25;100586.78;;;8.88;85.57
46942;BME280;32676;52.630;4.896;2022-11-25T08:43:53;100602.44;;;8.91;85.64
46942;BME280;32676;52.630;4.896;2022-11-25T08:46:22;100613.72;;;8.93;85.55
46942;BME280;32676;52.630;4.896;2022-11-25T08:48:49;100623.31;;;8.94;85.56
46942;BME280;32676;52.630;4.896;2022-11-25T08:51:18;100640.66;;;8.98;85.48
46942;BME280;32676;52.630;4.896;2022-11-25T08:53:45;100664.97;;;9.03;85.37
46942;BME280;32676;52.630;4.896;2022-11-25T08:56:12;100704.00;;;9.14;85.09
46942;BME280;32676;52.630;4.896;2022-11-25T08:58:40;100734.34;;;9.22;85.10
46942;BME280;32676;52.630;4.896;2022-11-25T09:01:07;100761.22;;;9.29;84.86
46942;BME280;32676;52.630;4.896;2022-11-25T09:03:35;100791.66;;;9.35;84.42
46942;BME280;32676;52.630;4.896;2022-11-25T09:06:02;100830.78;;;9.44;84.32
46942;BME280;32676;52.630;4.896;2022-11-25T09:08:30;100848.16;;;9.48;84.04
46942;BME280;32676;52.630;4.896;2022-11-25T09:10:57;100883.78;;;9.55;83.83
46942;BME280;32676;52.630;4.896;2022-11-25T09:13:25;100889.81;;;9.59;83.44
46942;BME280;32676;52.630;4.896;2022-11-25T09:15:53;100908.16;;;9.60;83.27
46942;BME280;32676;52.630;4.896;2022-11-25T09:18:20;100936.78;;;9.68;83.14
46942;BME280;32676;52.630;4.896;2022-11-25T09:20:50;100946.34;;;9.71;83.37
46942;BME280;32676;52.630;4.896;2022-11-25T09:23:17;100943.88;;;9.65;83.24
46942;BME280;32676;52.630;4.896;2022-11-25T09:25:49;100990.63;;;9.83;83.33
46942;BME280;32676;52.630;4.896;2022-11-25T09:28:16;101035.00;;;9.92;83.33
46942;BME280;32676;52.630;4.896;2022-11-25T09:30:43;101096.78;;;10.06;83.36
46942;BME280;32676;52.630;4.896;2022-11-25T09:33:11;101156.78;;;10.21;83.89
46942;BME280;32676;52.630;4.896;2022-11-25T09:35:37;101222.13;;;10.35;83.98
46942;BME280;32676;52.630;4.896;2022-11-25T09:38:03;101243.03;;;10.40;84.14
46942;BME280;32676;52.630;4.896;2022-11-25T09:40:35;101266.50;;;10.46;84.24
46942;BME280;32676;52.630;4.896;2022-11-25T09:43:06;101263.06;;;10.44;84.25
46942;BME280;32676;52.630;4.896;2022-11-25T09:46:03;101247.41;;;10.41;84.54
46942;BME280;32676;52.630;4.896;2022-11-25T09:48:57;101286.59;;;10.50;85.01
46942;BME280;32676;52.630;4.896;2022-11-25T09:51:29;101328.38;;;10.61;85.37
46942;BME280;32676;52.630;4.896;2022-11-25T09:54:06;101391.09;;;10.74;85.09
46942;BME280;32676;52.630;4.896;2022-11-25T09:56:40;101448.63;;;10.87;84.99
46942;BME280;32676;52.630;4.896;2022-11-25T09:59:12;101503.59;;;10.99;84.93
46942;BME280;32676;52.630;4.896;2022-11-25T10:01:46;101550.66;;;11.11;84.77
46942;BME280;32676;52.630;4.896;2022-11-25T10:04:19;101555.91;;;11.11;84.73
46942;BME280;32676;52.630;4.896;2022-11-25T10:06:51;101577.66;;;11.18;84.74
46942;BME280;32676;52.630;4.896;2022-11-25T10:09:22;101568.13;;;11.12;84.44
46942;BME280;32676;52.630;4.896;2022-11-25T10:11:51;101590.78;;;11.20;84.32
46942;BME280;32676;52.630;4.896;2022-11-25T10:14:25;101603.03;;;11.21;84.39
46942;BME280;32676;52.630;4.896;2022-11-25T10:16:59;101618.75;;;11.24;84.64
46942;BME280;32676;52.630;4.896;2022-11-25T10:19:35;101655.31;;;11.36;84.90
46942;BME280;32676;52.630;4.896;2022-11-25T10:22:14;101700.75;;;11.44;84.54
46942;BME280;32676;52.630;4.896;2022-11-25T10:24:42;101737.41;;;11.53;84.81
46942;BME280;32676;52.630;4.896;2022-11-25T10:27:16;101737.50;;;11.47;84.56
46942;BME280;32676;52.630;4.896;2022-11-25T10:29:48;101795.81;;;11.69;84.74
46942;BME280;32676;52.630;4.896;2022-11-25T10:32:21;101840.41;;;11.79;84.29
46942;BME280;32676;52.630;4.896;2022-11-25T10:34:53;101872.75;;;11.85;84.08
46942;BME280;32676;52.630;4.896;2022-11-25T10:37:26;101913.84;;;11.96;83.98
46942;BME280;32676;52.630;4.896;2022-11-25T10:39:54;101919.03;;;11.99;83.52
46942;BME280;32676;52.630;4.896;2022-11-25T10:42:22;101938.31;;;12.01;83.25
46942;BME280;32676;52.630;4.896;2022-11-25T10:44:50;101922.63;;;11.95;82.80
46942;BME280;32676;52.630;4.896;2022-11-25T10:47:30;101924.28;;;11.99;82.18
46942;BME280;32676;52.630;4.896;2022-11-25T10:50:07;101929.56;;;11.99;82.14
46942;BME280;32676;52.630;4.896;2022-11-25T10:52:40;101940.03;;;12.02;81.24
46942;BME280;32676;52.630;4.896;2022-11-25T10:55:10;101915.69;;;11.90;80.72
46942;BME280;32676;52.630;4.896;2022-11-25T10:57:37;101895.53;;;11.88;79.95
46942;BME280;32676;52.630;4.896;2022-11-25T11:00:05;101910.38;;;11.94;79.57
46942;BME280;32676;52.630;4.896;2022-11-25T11:02:37;101892.00;;;11.90;78.76
46942;BME280;32676;52.630;4.896;2022-11-25T11:05:17;101882.31;;;11.89;78.61
46942;BME280;32676;52.630;4.896;2022-11-25T11:07:45;101905.09;;;11.94;78.03
46942;BME280;32676;52.630;4.896;2022-11-25T11:10:17;101923.44;;;11.98;78.25
46942;BME280;32676;52.630;4.896;2022-11-25T11:12:54;101955.81;;;12.05;77.87
46942;BME280;32676;52.630;4.896;2022-11-25T11:15:23;101994.25;;;12.15;77.51
46942;BME280;32676;52.630;4.896;2022-11-25T11:17:50;102030.09;;;12.22;77.35
46942;BME280;32676;52.630;4.896;2022-11-25T11:20:21;102028.41;;;12.20;77.27
46942;BME280;32676;52.630;4.896;2022-11-25T11:22:54;102043.22;;;12.25;77.49
46942;BME280;32676;52.630;4.896;2022-11-25T11:25:28;102055.41;;;12.29;77.32
46942;BME280;32676;52.630;4.896;2022-11-25T11:27:56;102044.97;;;12.26;77.32
46942;BME280;32676;52.630;4.896;2022-11-25T11:30:28;102046.69;;;12.27;76.82
46942;BME280;32676;52.630;4.896;2022-11-25T11:32:59;102027.44;;;12.22;76.36
46942;BME280;32676;52.630;4.896;2022-11-25T11:35:39;102000.31;;;12.19;75.92
46942;BME280;32676;52.630;4.896;2022-11-25T11:38:25;101975.88;;;12.10;75.42
46942;BME280;32676;52.630;4.896;2022-11-25T11:40:58;101960.94;;;12.11;74.94
46942;BME280;32676;52.630;4.896;2022-11-25T11:43:45;101950.53;;;12.05;75.02
46942;BME280;32676;52.630;4.896;2022-11-25T11:46:27;101954.00;;;12.07;75.01
46942;BME280;32676;52.630;4.896;2022-11-25T11:49:04;101960.94;;;12.11;75.68
46942;BME280;32676;52.630;4.896;2022-11-25T11:51:43;101967.13;;;12.10;75.71
46942;BME280;32676;52.630;4.896;2022-11-25T11:54:16;101971.47;;;12.11;75.89
46942;BME280;32676;52.630;4.896;2022-11-25T11:56:48;101967.94;;;12.12;75.69
46942;BME280;32676;52.630;4.896;2022-11-25T11:59:34;101953.28;;;11.99;75.68
46942;BME280;32676;52.630;4.896;2022-11-25T12:02:21;101983.72;;;12.15;76.11
46942;BME280;32676;52.630;4.896;2022-11-25T12:04:53;102002.91;;;12.20;75.99
46942;BME280;32676;52.630;4.896;2022-11-25T12:07:30;101999.44;;;12.18;76.11
46942;BME280;32676;52.630;4.896;2022-11-25T12:10:02;102002.91;;;12.20;76.01
46942;BME280;32676;52.630;4.896;2022-11-25T12:12:33;101985.47;;;12.13;76.04
46942;BME280;32676;52.630;4.896;2022-11-25T12:15:05;102002.97;;;12.17;75.86
46942;BME280;32676;52.630;4.896;2022-11-25T12:17:39;102008.16;;;12.22;75.88
46942;BME280;32676;52.630;4.896;2022-11-25T12:20:14;102013.38;;;12.23;75.08
46942;BME280;32676;52.630;4.896;2022-11-25T12:22:51;102020.41;;;12.24;75.00
46942;BME280;32676;52.630;4.896;2022-11-25T12:25:21;102030.88;;;12.27;75.34
46942;BME280;32676;52.630;4.896;2022-11-25T12:27:52;102036.13;;;12.27;75.39
46942;BME280;32676;52.630;4.896;2022-11-25T12:30:21;102022.13;;;12.25;75.51
46942;BME280;32676;52.630;4.896;2022-11-25T12:32:57;102027.44;;;12.22;75.43
46942;BME280;32676;52.630;4.896;2022-11-25T12:35:32;102041.34;;;12.31;75.37
46942;BME280;32676;52.630;4.896;2022-11-25T12:38:04;102038.72;;;12.31;75.13
46942;BME280;32676;52.630;4.896;2022-11-25T12:40:43;102030.81;;;12.31;75.01
46942;BME280;32676;52.630;4.896;2022-11-25T12:43:24;102037.03;;;12.28;74.99
46942;BME280;32676;52.630;4.896;2022-11-25T12:45:59;102033.47;;;12.29;75.32
46942;BME280;32676;52.630;4.896;2022-11-25T12:48:38;102027.34;;;12.28;75.26
46942;BME280;32676;52.630;4.896;2022-11-25T12:51:13;102022.97;;;12.27;75.17
46942;BME280;32676;52.630;4.896;2022-11-25T12:53:49;101971.56;;;12.08;75.34
46942;BME280;32676;52.630;4.896;2022-11-25T12:56:24;101948.69;;;12.10;75.36
46942;BME280;32676;52.630;4.896;2022-11-25T12:58:59;101904.97;;;12.00;75.25
46942;BME280;32676;52.630;4.896;2022-11-25T13:01:55;101880.50;;;11.93;75.55
46942;BME280;32676;52.630;4.896;2022-11-25T13:04:43;101857.75;;;11.90;75.60
46942;BME280;32676;52.630;4.896;2022-11-25T13:07:24;101842.06;;;11.84;75.96
46942;BME280;32676;52.630;4.896;2022-11-25T13:10:05;101808.91;;;11.74;76.39